Time;durP1;ratioP1;P1;durP2;ratioP2;P2;SDS_P1;SDS_P2;PMS_P1;PMS_P2;Temp;Humidity;BMP_temperature;BMP_pressure;BME280_temperature;BME280_humidity;BME280_pressure;Samples;Min_cycle;Max_cycle;Signal;HPM_P1;HPM_P2
2023/08/23 04:46:32;;;;;;;13.70;8.77;;;;;;;;;;5393812;23;20553;-70
2023/08/23 04:48:58;;;;;;;15.27;9.23;;;;;;;;;;4935190;29;20446;-70
2023/08/23 04:51:24;;;;;;;12.50;8.70;;;;;;;;;;4939180;29;20425;-70
2023/08/23 04:53:50;;;;;;;17.40;9.50;;;;;;;;;;4938910;29;20410;-70
2023/08/23 04:56:16;;;;;;;16.37;9.70;;;;;;;;;;4947622;29;20425;-69
2023/08/23 04:58:42;;;;;;;15.83;8.00;;;;;;;;;;4980431;23;20464;-68
2023/08/23 05:01:08;;;;;;;15.83;9.50;;;;;;;;;;4937906;29;20783;-68
2023/08/23 05:03:35;;;;;;;11.20;8.10;;;;;;;;;;4938206;29;20433;-68
2023/08/23 05:06:02;;;;;;;13.30;8.20;;;;;;;;;;4938252;29;20429;-68
2023/08/23 05:08:28;;;;;;;14.43;8.60;;;;;;;;;;4937838;29;20473;-68
2023/08/23 05:10:55;;;;;;;12.30;8.90;;;;;;;;;;4938296;29;20461;-68
2023/08/23 05:13:21;;;;;;;11.20;8.17;;;;;;;;;;4938225;29;20508;-68
2023/08/23 05:15:54;;;;;;;14.13;8.47;;;;;;;;;;4938646;29;20453;-68
2023/08/23 05:18:20;;;;;;;16.93;9.57;;;;;;;;;;4937889;29;20479;-68
2023/08/23 05:20:46;;;;;;;13.93;8.70;;;;;;;;;;4937854;29;20461;-67
2023/08/23 05:23:12;;;;;;;16.00;9.07;;;;;;;;;;4937851;29;20468;-68
2023/08/23 05:25:38;;;;;;;14.03;9.63;;;;;;;;;;4938041;29;20460;-67
2023/08/23 05:28:04;;;;;;;19.17;9.23;;;;;;;;;;4937796;29;20446;-68
2023/08/23 05:30:32;;;;;;;13.00;8.10;;;;;;;;;;4937761;29;20444;-68
2023/08/23 05:32:58;;;;;;;17.63;9.30;;;;;;;;;;4937508;29;20476;-68
2023/08/23 05:35:24;;;;;;;13.60;9.03;;;;;;;;;;4937586;29;20493;-67
2023/08/23 05:37:50;;;;;;;11.90;8.00;;;;;;;;;;4937490;29;20894;-67
2023/08/23 05:40:16;;;;;;;11.97;8.53;;;;;;;;;;4937523;29;20429;-67
2023/08/23 05:42:42;;;;;;;17.63;9.07;;;;;;;;;;4937681;29;20468;-67
2023/08/23 05:45:08;;;;;;;15.60;8.20;;;;;;;;;;4937486;29;20418;-67
2023/08/23 05:47:34;;;;;;;17.97;9.80;;;;;;;;;;4937734;29;20410;-68
2023/08/23 05:50:00;;;;;;;15.17;9.00;;;;;;;;;;4937434;29;20425;-67
2023/08/23 05:52:26;;;;;;;16.70;8.97;;;;;;;;;;4937527;29;20931;-67
2023/08/23 05:54:52;;;;;;;15.53;9.60;;;;;;;;;;4937195;29;20414;-67
2023/08/23 05:57:18;;;;;;;16.57;8.17;;;;;;;;;;4937033;29;20500;-67
2023/08/23 05:59:44;;;;;;;14.80;9.60;;;;;;;;;;4937170;29;20456;-67
2023/08/23 06:02:10;;;;;;;15.23;8.80;;;;;;;;;;4935807;29;20468;-75
2023/08/23 06:04:36;;;;;;;9.87;8.00;;;;;;;;;;4941211;29;20810;-67
2023/08/23 06:07:03;;;;;;;12.83;8.27;;;;;;;;;;4943888;29;20467;-68
2023/08/23 06:09:29;;;;;;;11.77;8.27;;;;;;;;;;4933526;29;20449;-67
2023/08/23 06:11:55;;;;;;;12.93;8.57;;;;;;;;;;4946361;28;20445;-68
2023/08/23 06:14:24;;;;;;;13.70;7.60;;;;;;;;;;4938581;29;20783;-72
2023/08/23 06:16:51;;;;;;;14.63;8.43;;;;;;;;;;4937264;29;20429;-71
2023/08/23 06:19:17;;;;;;;15.70;8.13;;;;;;;;;;4944601;29;20864;-72
2023/08/23 06:21:43;;;;;;;14.03;8.73;;;;;;;;;;4955638;29;20463;-73
2023/08/23 06:24:09;;;;;;;16.03;8.10;;;;;;;;;;4956988;29;20899;-73
2023/08/23 06:26:35;;;;;;;10.70;7.50;;;;;;;;;;4956832;29;20409;-73
2023/08/23 06:29:01;;;;;;;12.13;7.47;;;;;;;;;;4957006;28;20524;-73
2023/08/23 06:31:27;;;;;;;12.63;8.33;;;;;;;;;;4957050;29;20468;-72
2023/08/23 06:33:53;;;;;;;14.57;8.93;;;;;;;;;;4956446;29;20416;-72
2023/08/23 06:36:19;;;;;;;13.33;8.53;;;;;;;;;;4958384;29;20445;-71
2023/08/23 06:38:45;;;;;;;17.00;9.07;;;;;;;;;;4958371;28;20424;-72
2023/08/23 06:41:11;;;;;;;11.83;9.57;;;;;;;;;;4957611;29;20412;-72
2023/08/23 06:43:37;;;;;;;14.60;9.37;;;;;;;;;;4957324;29;20563;-73
2023/08/23 06:46:03;;;;;;;10.77;7.50;;;;;;;;;;4957081;29;20424;-70
2023/08/23 06:48:29;;;;;;;11.57;7.80;;;;;;;;;;4956819;29;20413;-71
2023/08/23 06:50:55;;;;;;;12.20;7.80;;;;;;;;;;4956897;28;20441;-71
2023/08/23 06:53:21;;;;;;;12.40;8.37;;;;;;;;;;4956825;28;20480;-72
2023/08/23 06:55:47;;;;;;;12.60;8.70;;;;;;;;;;4956386;29;20809;-72
2023/08/23 06:58:15;;;;;;;11.03;8.27;;;;;;;;;;4941137;29;20434;-73
2023/08/23 07:00:41;;;;;;;11.70;7.60;;;;;;;;;;4936198;29;20555;-72
2023/08/23 07:03:07;;;;;;;10.00;7.97;;;;;;;;;;4936447;29;20575;-73
2023/08/23 07:05:34;;;;;;;14.80;9.30;;;;;;;;;;4931399;29;20431;-73
2023/08/23 07:08:00;;;;;;;11.27;8.27;;;;;;;;;;4928682;29;20422;-73
2023/08/23 07:10:26;;;;;;;13.73;7.80;;;;;;;;;;4937249;29;20488;-73
2023/08/23 07:12:52;;;;;;;14.20;8.60;;;;;;;;;;4936165;29;20520;-74
2023/08/23 07:15:19;;;;;;;16.83;8.50;;;;;;;;;;4922630;29;20766;-73
2023/08/23 07:17:45;;;;;;;10.53;7.53;;;;;;;;;;4936835;29;20501;-74
2023/08/23 07:20:13;;;;;;;11.03;8.47;;;;;;;;;;4928294;29;20973;-73
2023/08/23 07:22:39;;;;;;;11.83;8.47;;;;;;;;;;4936452;29;20978;-72
2023/08/23 07:25:05;;;;;;;22.20;9.00;;;;;;;;;;4936105;29;20426;-73
2023/08/23 07:27:31;;;;;;;14.33;7.80;;;;;;;;;;4936220;29;20535;-73
2023/08/23 07:29:58;;;;;;;14.67;9.37;;;;;;;;;;4928972;29;20889;-73
2023/08/23 07:32:24;;;;;;;10.10;7.30;;;;;;;;;;4938895;29;20776;-73
2023/08/23 07:34:50;;;;;;;13.33;9.00;;;;;;;;;;4937799;29;20429;-73
2023/08/23 07:37:17;;;;;;;17.10;8.70;;;;;;;;;;4937727;29;21067;-73
2023/08/23 07:39:43;;;;;;;11.53;8.30;;;;;;;;;;4937584;29;20464;-73
2023/08/23 07:42:09;;;;;;;13.43;8.00;;;;;;;;;;4936987;29;20874;-73
2023/08/23 07:44:36;;;;;;;11.93;8.23;;;;;;;;;;4936462;29;20757;-74
2023/08/23 07:47:02;;;;;;;12.70;8.00;;;;;;;;;;4936875;29;20888;-74
2023/08/23 07:49:27;;;;;;;14.50;7.40;;;;;;;;;;4936034;29;20456;-73
2023/08/23 07:51:53;;;;;;;17.53;9.80;;;;;;;;;;4935836;29;20429;-72
2023/08/23 07:54:20;;;;;;;13.10;8.17;;;;;;;;;;4935172;29;20433;-72
2023/08/23 07:56:45;;;;;;;10.93;8.13;;;;;;;;;;4929909;29;20429;-72
2023/08/23 07:59:11;;;;;;;17.30;7.60;;;;;;;;;;4932446;29;20868;-72
2023/08/23 08:01:37;;;;;;;22.93;7.57;;;;;;;;;;4935416;29;20900;-72
2023/08/23 08:04:03;;;;;;;17.00;8.03;;;;;;;;;;4925429;29;20486;-72
2023/08/23 08:06:29;;;;;;;22.13;8.43;;;;;;;;;;4916567;29;20828;-72
2023/08/23 08:08:55;;;;;;;18.30;8.60;;;;;;;;;;4933187;29;20813;-73
2023/08/23 08:11:21;;;;;;;12.17;7.00;;;;;;;;;;4935586;29;20812;-75
2023/08/23 08:13:47;;;;;;;14.33;8.43;;;;;;;;;;4932159;29;20415;-73
2023/08/23 08:16:14;;;;;;;13.80;8.50;;;;;;;;;;4927895;29;20430;-74
2023/08/23 08:18:40;;;;;;;15.53;7.77;;;;;;;;;;4930496;29;20446;-74
2023/08/23 08:21:06;;;;;;;10.33;8.53;;;;;;;;;;4935521;29;20433;-73
2023/08/23 08:23:32;;;;;;;15.10;7.93;;;;;;;;;;4934871;29;20500;-72
2023/08/23 08:25:59;;;;;;;12.57;7.70;;;;;;;;;;4936300;29;20422;-73
2023/08/23 08:28:25;;;;;;;13.70;8.07;;;;;;;;;;4936535;29;20418;-73
2023/08/23 08:30:51;;;;;;;13.10;8.23;;;;;;;;;;4935065;29;20433;-73
2023/08/23 08:33:17;;;;;;;13.60;7.50;;;;;;;;;;4935353;29;20420;-74
2023/08/23 08:35:43;;;;;;;13.43;7.40;;;;;;;;;;4936151;29;20418;-73
2023/08/23 08:38:10;;;;;;;11.30;8.27;;;;;;;;;;4935744;29;20425;-73
2023/08/23 08:40:39;;;;;;;12.17;6.90;;;;;;;;;;4936346;29;20441;-75
2023/08/23 08:43:06;;;;;;;10.40;7.40;;;;;;;;;;4936211;29;20469;-73
2023/08/23 08:45:32;;;;;;;10.67;7.57;;;;;;;;;;4935682;29;20420;-73
2023/08/23 08:47:58;;;;;;;14.30;7.97;;;;;;;;;;4935755;29;20421;-72
2023/08/23 08:50:26;;;;;;;9.63;6.80;;;;;;;;;;4935820;29;20971;-74
2023/08/23 08:52:53;;;;;;;12.13;7.63;;;;;;;;;;4935826;29;20946;-72
2023/08/23 08:55:20;;;;;;;9.47;6.70;;;;;;;;;;4935265;29;20965;-73
2023/08/23 08:57:47;;;;;;;18.20;8.00;;;;;;;;;;4935244;29;20413;-72
2023/08/23 09:00:13;;;;;;;12.27;7.83;;;;;;;;;;4934788;29;20484;-73
2023/08/23 09:02:40;;;;;;;9.50;6.70;;;;;;;;;;4950099;29;20461;-72
2023/08/23 09:05:06;;;;;;;11.33;7.80;;;;;;;;;;4955207;29;20410;-73
2023/08/23 09:07:32;;;;;;;8.27;6.67;;;;;;;;;;4933149;29;20437;-73
2023/08/23 09:09:59;;;;;;;9.83;7.40;;;;;;;;;;4934681;29;20485;-72
2023/08/23 09:12:24;;;;;;;7.90;6.57;;;;;;;;;;4934825;29;20453;-73
2023/08/23 09:14:51;;;;;;;12.67;8.00;;;;;;;;;;4934501;29;20425;-72
2023/08/23 09:17:23;;;;;;;10.60;7.03;;;;;;;;;;4934637;29;20512;-72
2023/08/23 09:19:49;;;;;;;8.80;7.33;;;;;;;;;;4930671;29;20452;-73
2023/08/23 09:22:22;;;;;;;18.50;7.23;;;;;;;;;;4934303;29;20469;-73
2023/08/23 09:24:48;;;;;;;12.70;8.00;;;;;;;;;;4932738;29;20935;-72
2023/08/23 09:27:14;;;;;;;10.73;6.80;;;;;;;;;;4934524;29;20417;-72
2023/08/23 09:29:40;;;;;;;16.70;7.73;;;;;;;;;;4933970;29;20474;-73
2023/08/23 09:32:06;;;;;;;9.23;7.17;;;;;;;;;;4934411;29;20491;-72
2023/08/23 09:34:32;;;;;;;12.97;7.93;;;;;;;;;;4933821;29;20835;-74
2023/08/23 09:37:07;;;;;;;12.93;8.07;;;;;;;;;;4936156;29;20496;-73
2023/08/23 09:39:34;;;;;;;12.30;7.73;;;;;;;;;;4937755;29;20461;-73
2023/08/23 09:42:05;;;;;;;15.90;7.90;;;;;;;;;;4937478;29;20563;-73
2023/08/23 09:44:36;;;;;;;12.17;7.20;;;;;;;;;;4938733;29;20961;-74
2023/08/23 09:47:03;;;;;;;10.90;6.27;;;;;;;;;;4938038;29;20504;-74
2023/08/23 09:49:34;;;;;;;20.17;7.73;;;;;;;;;;4938377;29;20500;-73
2023/08/23 09:52:00;;;;;;;12.93;7.60;;;;;;;;;;4938359;29;20432;-74
2023/08/23 09:54:35;;;;;;;11.63;7.87;;;;;;;;;;4939097;29;20492;-72
2023/08/23 09:57:02;;;;;;;11.00;6.70;;;;;;;;;;4937091;29;20887;-72
2023/08/23 09:59:28;;;;;;;24.63;7.47;;;;;;;;;;4919140;29;20963;-72
2023/08/23 10:01:54;;;;;;;7.97;7.03;;;;;;;;;;4920636;29;20466;-73
2023/08/23 10:04:20;;;;;;;11.00;7.00;;;;;;;;;;4920155;29;20419;-72
2023/08/23 10:06:48;;;;;;;12.40;7.40;;;;;;;;;;4919945;29;20476;-72
2023/08/23 10:09:15;;;;;;;9.00;7.43;;;;;;;;;;4922483;29;20459;-72
2023/08/23 10:11:41;;;;;;;14.03;7.50;;;;;;;;;;4936175;29;20500;-73
2023/08/23 10:14:08;;;;;;;17.27;7.90;;;;;;;;;;4937884;29;20848;-73
2023/08/23 10:16:35;;;;;;;13.00;6.90;;;;;;;;;;4937319;29;20513;-73
2023/08/23 10:19:01;;;;;;;15.33;7.63;;;;;;;;;;4938793;29;20440;-74
2023/08/23 10:21:27;;;;;;;12.47;6.97;;;;;;;;;;4939096;29;20420;-73
2023/08/23 10:23:53;;;;;;;10.47;6.47;;;;;;;;;;4938103;29;20402;-73
2023/08/23 10:26:22;;;;;;;8.40;6.53;;;;;;;;;;4938498;29;20452;-72
2023/08/23 10:28:52;;;;;;;10.30;7.40;;;;;;;;;;4937074;29;20422;-72
2023/08/23 10:31:22;;;;;;;9.93;6.53;;;;;;;;;;4938592;29;20424;-72
2023/08/23 10:33:54;;;;;;;10.00;7.20;;;;;;;;;;4938821;29;20831;-72
2023/08/23 10:36:29;;;;;;;12.30;7.77;;;;;;;;;;4938043;29;20516;-71
2023/08/23 10:38:56;;;;;;;12.43;7.27;;;;;;;;;;4936357;29;20445;-72
2023/08/23 10:41:22;;;;;;;11.63;7.77;;;;;;;;;;4936850;29;20831;-72
2023/08/23 10:43:48;;;;;;;14.20;7.50;;;;;;;;;;4936338;29;20524;-72
2023/08/23 10:46:18;;;;;;;14.03;7.90;;;;;;;;;;4936018;29;20445;-72
2023/08/23 10:48:44;;;;;;;13.80;7.50;;;;;;;;;;4935153;29;20445;-73
2023/08/23 10:51:11;;;;;;;11.10;6.70;;;;;;;;;;4936442;29;20417;-72
2023/08/23 10:53:37;;;;;;;11.23;7.10;;;;;;;;;;4936121;29;20561;-72
2023/08/23 10:56:03;;;;;;;10.60;7.30;;;;;;;;;;4934033;29;20453;-73
2023/08/23 10:58:31;;;;;;;11.80;7.40;;;;;;;;;;4934755;29;20445;-72
2023/08/23 11:00:57;;;;;;;9.00;6.43;;;;;;;;;;4935670;29;20461;-71
2023/08/23 11:03:24;;;;;;;14.40;7.20;;;;;;;;;;4936677;29;20480;-71
2023/08/23 11:05:50;;;;;;;9.70;6.33;;;;;;;;;;4936988;29;20410;-72
2023/08/23 11:08:16;;;;;;;12.40;7.40;;;;;;;;;;4931492;29;20437;-72
2023/08/23 11:10:43;;;;;;;9.70;6.10;;;;;;;;;;4919177;29;20434;-73
2023/08/23 11:13:09;;;;;;;8.60;5.83;;;;;;;;;;4927754;29;20410;-72
2023/08/23 11:15:35;;;;;;;10.40;6.60;;;;;;;;;;4936107;29;20461;-71
2023/08/23 11:18:02;;;;;;;11.53;6.67;;;;;;;;;;4935806;29;20417;-73
2023/08/23 11:20:28;;;;;;;17.20;6.90;;;;;;;;;;4935720;29;20445;-71
2023/08/23 11:22:54;;;;;;;6.20;5.50;;;;;;;;;;4934815;29;20473;-73
2023/08/23 11:25:20;;;;;;;13.40;6.90;;;;;;;;;;4935735;29;20489;-73
2023/08/23 11:27:46;;;;;;;10.80;6.10;;;;;;;;;;4935468;29;20516;-73
2023/08/23 11:30:12;;;;;;;17.40;6.23;;;;;;;;;;4935659;29;20462;-72
2023/08/23 11:32:38;;;;;;;13.37;7.87;;;;;;;;;;4935859;29;20477;-73
2023/08/23 11:35:06;;;;;;;6.50;6.00;;;;;;;;;;4935248;29;20429;-73
2023/08/23 11:37:32;;;;;;;9.80;6.10;;;;;;;;;;4933768;29;20425;-71
2023/08/23 11:39:59;;;;;;;9.20;6.43;;;;;;;;;;4935050;29;20810;-72
2023/08/23 11:42:25;;;;;;;8.47;5.83;;;;;;;;;;4935078;29;20876;-71
2023/08/23 11:44:55;;;;;;;8.10;6.80;;;;;;;;;;4935318;29;20888;-73
2023/08/23 11:47:25;;;;;;;17.30;6.70;;;;;;;;;;4955640;29;20424;-71
2023/08/23 11:49:55;;;;;;;11.40;6.40;;;;;;;;;;4956419;28;20437;-72
2023/08/23 11:52:21;;;;;;;8.97;6.67;;;;;;;;;;4934483;29;20437;-71
2023/08/23 11:54:47;;;;;;;9.40;7.27;;;;;;;;;;4935234;29;20464;-74
2023/08/23 11:57:17;;;;;;;10.60;6.17;;;;;;;;;;4935095;29;20433;-73
2023/08/23 11:59:43;;;;;;;11.07;6.63;;;;;;;;;;4924147;29;20504;-74
2023/08/23 12:02:10;;;;;;;11.03;6.87;;;;;;;;;;4929427;29;20930;-73
2023/08/23 12:04:40;;;;;;;14.83;6.83;;;;;;;;;;4936228;29;20426;-73
2023/08/23 12:07:06;;;;;;;15.07;6.70;;;;;;;;;;4935877;29;20409;-74
2023/08/23 12:09:32;;;;;;;10.67;6.50;;;;;;;;;;4934391;29;20489;-73
2023/08/23 12:11:59;;;;;;;9.90;6.77;;;;;;;;;;4935069;29;21025;-73
2023/08/23 12:14:28;;;;;;;16.43;6.97;;;;;;;;;;4934563;29;20429;-73
2023/08/23 12:16:54;;;;;;;10.60;6.70;;;;;;;;;;4934345;29;20524;-73
2023/08/23 12:19:20;;;;;;;11.53;6.93;;;;;;;;;;4923626;29;20457;-74
2023/08/23 12:21:46;;;;;;;11.43;6.77;;;;;;;;;;4916890;29;20493;-74
2023/08/23 12:24:12;;;;;;;10.60;6.83;;;;;;;;;;4930379;29;20432;-75
2023/08/23 12:26:38;;;;;;;15.27;7.10;;;;;;;;;;4935060;29;20508;-74
2023/08/23 12:29:04;;;;;;;9.20;6.47;;;;;;;;;;4934034;29;20445;-74
2023/08/23 12:31:30;;;;;;;9.67;6.23;;;;;;;;;;4924244;29;20471;-74
2023/08/23 12:33:56;;;;;;;14.77;7.57;;;;;;;;;;4915914;29;20773;-73
2023/08/23 12:36:24;;;;;;;9.20;6.13;;;;;;;;;;4926257;29;20429;-74
2023/08/23 12:38:50;;;;;;;12.53;7.07;;;;;;;;;;4924027;29;20453;-74
2023/08/23 12:41:16;;;;;;;9.27;6.80;;;;;;;;;;4919190;29;20426;-74
2023/08/23 12:43:42;;;;;;;11.83;5.90;;;;;;;;;;4934177;29;20469;-74
2023/08/23 12:46:08;;;;;;;13.80;6.90;;;;;;;;;;4934377;29;20521;-74
2023/08/23 12:48:34;;;;;;;12.60;7.33;;;;;;;;;;4934151;29;20437;-73
2023/08/23 12:51:00;;;;;;;10.93;6.20;;;;;;;;;;4935413;29;20429;-73
2023/08/23 12:53:26;;;;;;;10.67;6.37;;;;;;;;;;4935008;29;20571;-73
2023/08/23 12:55:52;;;;;;;9.80;6.20;;;;;;;;;;4932574;29;20437;-73
2023/08/23 12:58:19;;;;;;;10.80;6.93;;;;;;;;;;4929536;29;20448;-73
2023/08/23 13:00:44;;;;;;;12.07;7.10;;;;;;;;;;4934855;29;20505;-73
2023/08/23 13:03:11;;;;;;;18.40;7.23;;;;;;;;;;4934280;29;20512;-73
2023/08/23 13:05:37;;;;;;;12.70;6.67;;;;;;;;;;4934497;29;20898;-71
2023/08/23 13:08:03;;;;;;;8.30;6.17;;;;;;;;;;4934469;29;20432;-72
2023/08/23 13:10:30;;;;;;;15.50;7.10;;;;;;;;;;4934855;29;20979;-73
2023/08/23 13:12:56;;;;;;;11.47;7.17;;;;;;;;;;4937542;29;20438;-72
2023/08/23 13:15:22;;;;;;;9.97;6.03;;;;;;;;;;4937605;29;20429;-73
2023/08/23 13:17:48;;;;;;;9.30;6.17;;;;;;;;;;4938035;29;20587;-72
2023/08/23 13:20:14;;;;;;;12.40;6.73;;;;;;;;;;4938119;29;20430;-73
2023/08/23 13:22:40;;;;;;;14.20;6.90;;;;;;;;;;4929680;29;20847;-73
2023/08/23 13:25:06;;;;;;;10.60;6.43;;;;;;;;;;4937376;29;20425;-72
2023/08/23 13:27:33;;;;;;;9.70;6.53;;;;;;;;;;4938094;29;20988;-73
2023/08/23 13:29:59;;;;;;;9.67;6.23;;;;;;;;;;4936769;29;20434;-72
2023/08/23 13:32:25;;;;;;;8.50;6.00;;;;;;;;;;4937863;29;20425;-72
2023/08/23 13:34:51;;;;;;;8.37;6.63;;;;;;;;;;4938145;29;20413;-72
2023/08/23 13:37:17;;;;;;;8.87;6.03;;;;;;;;;;4937570;29;20496;-72
2023/08/23 13:39:43;;;;;;;9.97;6.30;;;;;;;;;;4938711;29;20520;-72
2023/08/23 13:42:09;;;;;;;11.53;7.17;;;;;;;;;;4938043;29;20523;-72
2023/08/23 13:44:35;;;;;;;9.00;6.43;;;;;;;;;;4938150;29;20418;-71
2023/08/23 13:47:01;;;;;;;9.83;7.50;;;;;;;;;;4938318;29;20445;-72
2023/08/23 13:49:27;;;;;;;10.30;7.37;;;;;;;;;;4938327;29;20467;-72
2023/08/23 13:51:53;;;;;;;14.20;7.30;;;;;;;;;;4938913;29;20449;-70
2023/08/23 13:54:18;;;;;;;16.07;6.80;;;;;;;;;;4938434;29;20425;-71
2023/08/23 13:56:44;;;;;;;12.70;8.27;;;;;;;;;;4938990;29;20452;-71
2023/08/23 13:59:10;;;;;;;8.13;6.00;;;;;;;;;;4938544;29;20484;-71
2023/08/23 14:01:36;;;;;;;15.30;7.27;;;;;;;;;;4938573;29;20547;-72
2023/08/23 14:04:03;;;;;;;14.63;6.30;;;;;;;;;;4938398;29;20496;-72
2023/08/23 14:06:30;;;;;;;11.43;6.90;;;;;;;;;;4937734;29;20413;-72
2023/08/23 14:08:56;;;;;;;10.33;5.90;;;;;;;;;;4937255;29;20494;-71
2023/08/23 14:11:22;;;;;;;8.70;5.87;;;;;;;;;;4937207;29;20421;-72
2023/08/23 14:13:48;;;;;;;15.53;6.33;;;;;;;;;;4936898;29;20433;-72
2023/08/23 14:16:14;;;;;;;9.43;6.03;;;;;;;;;;4937264;29;20779;-73
2023/08/23 14:18:40;;;;;;;11.53;6.07;;;;;;;;;;4948632;29;20427;-72
2023/08/23 14:21:08;;;;;;;9.50;5.53;;;;;;;;;;4958338;28;20425;-72
2023/08/23 14:23:35;;;;;;;12.30;7.10;;;;;;;;;;4936984;29;20472;-73
2023/08/23 14:26:03;;;;;;;7.73;5.73;;;;;;;;;;4937123;29;20410;-72
2023/08/23 14:28:29;;;;;;;10.27;6.47;;;;;;;;;;4936949;29;20421;-73
2023/08/23 14:30:55;;;;;;;8.80;5.30;;;;;;;;;;4949709;29;20457;-73
2023/08/23 14:33:21;;;;;;;9.13;5.40;;;;;;;;;;4953755;29;20490;-71
2023/08/23 14:35:47;;;;;;;10.20;6.40;;;;;;;;;;4957331;29;20433;-71
2023/08/23 14:38:13;;;;;;;8.30;5.30;;;;;;;;;;4956768;28;20426;-70
2023/08/23 14:40:43;;;;;;;8.90;5.33;;;;;;;;;;4954787;28;20943;-70
2023/08/23 14:43:09;;;;;;;8.87;5.43;;;;;;;;;;4955416;28;20835;-71
2023/08/23 14:45:35;;;;;;;6.63;4.83;;;;;;;;;;4960019;28;20512;-71
2023/08/23 14:48:01;;;;;;;9.77;5.60;;;;;;;;;;4956970;28;20406;-72
2023/08/23 14:50:27;;;;;;;6.63;4.97;;;;;;;;;;4933631;29;20465;-72
2023/08/23 14:52:53;;;;;;;5.37;5.07;;;;;;;;;;4917770;29;20929;-72
2023/08/23 14:55:19;;;;;;;8.13;5.60;;;;;;;;;;4917933;29;20921;-72
2023/08/23 14:57:45;;;;;;;7.37;5.27;;;;;;;;;;4926610;29;20818;-73
2023/08/23 15:00:11;;;;;;;10.63;5.03;;;;;;;;;;4932384;29;20461;-73
2023/08/23 15:02:37;;;;;;;9.87;5.17;;;;;;;;;;4925435;29;20478;-73
2023/08/23 15:05:04;;;;;;;7.00;5.20;;;;;;;;;;4935630;29;20530;-73
2023/08/23 15:07:30;;;;;;;13.70;5.00;;;;;;;;;;4929240;29;20425;-73
2023/08/23 15:09:56;;;;;;;11.70;5.83;;;;;;;;;;4934055;29;20433;-72
2023/08/23 15:12:21;;;;;;;9.00;5.20;;;;;;;;;;4930310;29;20430;-73
2023/08/23 15:14:47;;;;;;;6.70;5.17;;;;;;;;;;4925581;29;20513;-73
2023/08/23 15:17:13;;;;;;;13.50;5.47;;;;;;;;;;4934884;29;20469;-73
2023/08/23 15:19:42;;;;;;;6.97;4.87;;;;;;;;;;4934083;29;20569;-74
2023/08/23 15:22:08;;;;;;;8.10;5.20;;;;;;;;;;4933313;29;20888;-73
2023/08/23 15:24:33;;;;;;;9.47;5.13;;;;;;;;;;4933616;29;20465;-72
2023/08/23 15:26:59;;;;;;;11.57;5.17;;;;;;;;;;4933738;29;20795;-71
2023/08/23 15:29:27;;;;;;;8.40;5.63;;;;;;;;;;4929045;29;20870;-72
2023/08/23 15:31:53;;;;;;;7.90;5.43;;;;;;;;;;4934807;29;20947;-72
2023/08/23 15:34:19;;;;;;;8.60;5.53;;;;;;;;;;4934438;29;20528;-71
2023/08/23 15:36:45;;;;;;;11.13;4.63;;;;;;;;;;4935073;29;20489;-71
2023/08/23 15:39:11;;;;;;;7.67;5.17;;;;;;;;;;4935060;29;20460;-71
2023/08/23 15:41:37;;;;;;;5.40;4.67;;;;;;;;;;4930007;29;20931;-71
2023/08/23 15:44:03;;;;;;;6.33;4.77;;;;;;;;;;4935325;29;20417;-70
2023/08/23 15:46:29;;;;;;;9.40;4.80;;;;;;;;;;4933878;29;20457;-70
2023/08/23 15:48:55;;;;;;;10.23;4.87;;;;;;;;;;4934008;29;20437;-70
2023/08/23 15:51:21;;;;;;;7.67;5.60;;;;;;;;;;4935056;29;20426;-71
2023/08/23 15:53:47;;;;;;;10.77;5.17;;;;;;;;;;4934985;29;20934;-70
2023/08/23 15:56:13;;;;;;;8.30;5.20;;;;;;;;;;4935145;29;20413;-70
2023/08/23 15:58:40;;;;;;;5.57;4.57;;;;;;;;;;4934838;29;20409;-70
2023/08/23 16:01:06;;;;;;;9.90;4.93;;;;;;;;;;4935000;29;20854;-70
2023/08/23 16:03:32;;;;;;;7.10;4.33;;;;;;;;;;4935104;29;20473;-70
2023/08/23 16:05:59;;;;;;;6.77;4.70;;;;;;;;;;4934560;29;20425;-70
2023/08/23 16:08:25;;;;;;;6.13;4.53;;;;;;;;;;4934678;29;20497;-69
2023/08/23 16:10:52;;;;;;;8.33;5.00;;;;;;;;;;4933572;29;20441;-70
2023/08/23 16:13:18;;;;;;;8.13;5.07;;;;;;;;;;4934681;29;20416;-70
2023/08/23 16:15:44;;;;;;;8.43;4.57;;;;;;;;;;4934620;29;20469;-70
2023/08/23 16:18:10;;;;;;;9.77;4.40;;;;;;;;;;4933804;29;20433;-70
2023/08/23 16:20:36;;;;;;;6.80;4.90;;;;;;;;;;4934342;29;20449;-70
2023/08/23 16:23:02;;;;;;;9.07;4.37;;;;;;;;;;4934309;29;20465;-70
2023/08/23 16:25:28;;;;;;;5.90;4.37;;;;;;;;;;4934734;29;20939;-70
2023/08/23 16:27:53;;;;;;;9.20;4.60;;;;;;;;;;4934491;29;20907;-70
2023/08/23 16:30:19;;;;;;;7.00;4.83;;;;;;;;;;4934441;29;20816;-71
2023/08/23 16:32:45;;;;;;;9.73;5.23;;;;;;;;;;4934487;29;20961;-70
2023/08/23 16:35:11;;;;;;;6.57;4.50;;;;;;;;;;4934494;29;20507;-70
2023/08/23 16:37:41;;;;;;;10.07;4.80;;;;;;;;;;4934800;29;20441;-70
2023/08/23 16:40:07;;;;;;;12.20;4.87;;;;;;;;;;4934508;29;20429;-70
2023/08/23 16:42:34;;;;;;;8.70;4.97;;;;;;;;;;4934305;29;20457;-70
2023/08/23 16:45:00;;;;;;;9.17;4.73;;;;;;;;;;4937524;29;20449;-68
2023/08/23 16:47:26;;;;;;;7.57;5.40;;;;;;;;;;4942255;29;20413;-71
2023/08/23 16:49:53;;;;;;;12.90;5.23;;;;;;;;;;4941244;29;20822;-71
2023/08/23 16:52:19;;;;;;;9.53;5.90;;;;;;;;;;4941214;29;20424;-71
2023/08/23 16:54:45;;;;;;;9.33;5.70;;;;;;;;;;4941990;29;20970;-71
2023/08/23 16:57:11;;;;;;;7.50;5.17;;;;;;;;;;4941263;29;20492;-70
2023/08/23 16:59:37;;;;;;;8.20;4.80;;;;;;;;;;4940865;29;20453;-71
2023/08/23 17:02:03;;;;;;;8.37;5.40;;;;;;;;;;4941353;29;20464;-71
2023/08/23 17:04:29;;;;;;;9.10;6.10;;;;;;;;;;4941232;29;20437;-72
2023/08/23 17:06:55;;;;;;;9.93;5.77;;;;;;;;;;4940879;29;20432;-71
2023/08/23 17:09:21;;;;;;;9.03;5.70;;;;;;;;;;4941190;29;20429;-71
2023/08/23 17:11:47;;;;;;;10.97;6.90;;;;;;;;;;4941371;29;20421;-70
2023/08/23 17:14:13;;;;;;;12.33;6.63;;;;;;;;;;4941330;29;20410;-70
2023/08/23 17:16:39;;;;;;;8.93;5.60;;;;;;;;;;4940632;29;20468;-70
2023/08/23 17:19:05;;;;;;;9.40;6.33;;;;;;;;;;4940483;29;20543;-70
2023/08/23 17:21:31;;;;;;;14.43;6.13;;;;;;;;;;4941099;29;20425;-71
2023/08/23 17:23:57;;;;;;;11.43;6.77;;;;;;;;;;4940618;29;20581;-72
2023/08/23 17:26:23;;;;;;;15.20;7.20;;;;;;;;;;4940756;29;20405;-70
2023/08/23 17:28:49;;;;;;;10.03;6.40;;;;;;;;;;4940770;29;20410;-70
2023/08/23 17:31:16;;;;;;;20.27;7.67;;;;;;;;;;4940831;29;20429;-71
2023/08/23 17:33:42;;;;;;;13.20;6.33;;;;;;;;;;4940536;29;20424;-71
2023/08/23 17:36:08;;;;;;;9.50;6.17;;;;;;;;;;4941139;29;20413;-70
2023/08/23 17:38:34;;;;;;;9.00;5.50;;;;;;;;;;4939978;29;20440;-71
2023/08/23 17:41:03;;;;;;;12.93;7.37;;;;;;;;;;4940571;29;20449;-71
2023/08/23 17:43:29;;;;;;;14.73;6.30;;;;;;;;;;4940220;29;20497;-70
2023/08/23 17:45:55;;;;;;;10.00;6.77;;;;;;;;;;4935652;29;20430;-71
2023/08/23 17:48:21;;;;;;;9.43;6.47;;;;;;;;;;4935853;29;20414;-72
2023/08/23 17:50:47;;;;;;;7.80;6.30;;;;;;;;;;4939541;29;20444;-71
2023/08/23 17:53:13;;;;;;;7.93;5.70;;;;;;;;;;4940721;29;20501;-70
2023/08/23 17:55:39;;;;;;;12.50;6.00;;;;;;;;;;4938947;29;20417;-72
2023/08/23 17:58:05;;;;;;;9.03;5.83;;;;;;;;;;4938285;29;20429;-70
2023/08/23 18:00:32;;;;;;;14.13;6.13;;;;;;;;;;4937667;29;20496;-69
2023/08/23 18:02:58;;;;;;;9.93;5.90;;;;;;;;;;4936031;29;21712;-69
2023/08/23 18:05:27;;;;;;;14.23;5.60;;;;;;;;;;4926573;29;20429;-69
2023/08/23 18:07:53;;;;;;;11.07;6.70;;;;;;;;;;4937605;29;20429;-69
2023/08/23 18:10:19;;;;;;;8.50;5.77;;;;;;;;;;4937291;29;20452;-68
2023/08/23 18:12:45;;;;;;;9.87;6.13;;;;;;;;;;4938005;29;20421;-69
2023/08/23 18:15:13;;;;;;;10.07;6.57;;;;;;;;;;4938128;29;20410;-68
2023/08/23 18:17:39;;;;;;;9.33;5.83;;;;;;;;;;4937378;29;20801;-67
2023/08/23 18:20:06;;;;;;;13.77;6.43;;;;;;;;;;4937362;29;20438;-68
2023/08/23 18:22:32;;;;;;;9.07;5.77;;;;;;;;;;4936691;29;20473;-68
2023/08/23 18:24:58;;;;;;;9.43;6.00;;;;;;;;;;4936749;29;20785;-68
2023/08/23 18:27:24;;;;;;;13.40;6.90;;;;;;;;;;4929130;29;20798;-68
2023/08/23 18:29:50;;;;;;;16.53;7.50;;;;;;;;;;4924944;29;20808;-68
2023/08/23 18:32:15;;;;;;;15.53;7.10;;;;;;;;;;4917348;29;20506;-68
2023/08/23 18:34:41;;;;;;;13.63;7.43;;;;;;;;;;4917646;29;20895;-67
2023/08/23 18:37:07;;;;;;;14.60;7.60;;;;;;;;;;4917451;29;20919;-68
2023/08/23 18:39:33;;;;;;;25.10;8.03;;;;;;;;;;4927335;29;20469;-68
2023/08/23 18:41:59;;;;;;;16.40;7.90;;;;;;;;;;4917219;29;20430;-67
2023/08/23 18:44:26;;;;;;;13.00;7.13;;;;;;;;;;4922088;29;20429;-67
2023/08/23 18:46:51;;;;;;;11.33;6.80;;;;;;;;;;4935791;29;20438;-68
2023/08/23 18:49:17;;;;;;;17.50;6.70;;;;;;;;;;4934898;29;20911;-68
2023/08/23 18:51:43;;;;;;;8.70;6.43;;;;;;;;;;4935675;29;20418;-68
2023/08/23 18:54:11;;;;;;;9.83;5.80;;;;;;;;;;4936254;29;20422;-68
2023/08/23 18:56:37;;;;;;;12.67;6.13;;;;;;;;;;4936385;29;20841;-68
2023/08/23 18:59:03;;;;;;;12.60;6.77;;;;;;;;;;4930720;29;20525;-68
2023/08/23 19:01:29;;;;;;;10.90;6.13;;;;;;;;;;4925312;29;20901;-68
2023/08/23 19:03:56;;;;;;;10.77;5.80;;;;;;;;;;4924854;29;20477;-68
2023/08/23 19:06:22;;;;;;;16.80;6.90;;;;;;;;;;4936079;29;20831;-68
2023/08/23 19:08:48;;;;;;;14.20;7.43;;;;;;;;;;4934556;29;20413;-68
2023/08/23 19:11:14;;;;;;;13.23;6.50;;;;;;;;;;4935936;29;20454;-68
2023/08/23 19:13:40;;;;;;;13.00;7.00;;;;;;;;;;4934892;29;20430;-68